Time;durP1;ratioP1;P1;durP2;ratioP2;P2;SDS_P1;SDS_P2;PMS_P1;PMS_P2;Temp;Humidity;BMP_temperature;BMP_pressure;BME280_temperature;BME280_humidity;BME280_pressure;Samples;Min_cycle;Max_cycle;Signal;HPM_P1;HPM_P2
2023/03/03 00:00:15;;;;;;;;;;;;;;;1.20;88.26;96622.28;4994374;28;20369;-74
2023/03/03 00:02:41;;;;;;;;;;;;;;;1.21;88.14;96621.31;4994164;28;19977;-75
2023/03/03 00:05:07;;;;;;;;;;;;;;;1.20;88.14;96620.50;4994257;28;20404;-75
2023/03/03 00:07:33;;;;;;;;;;;;;;;1.20;87.96;96624.88;4993865;28;20334;-75
2023/03/03 00:09:58;;;;;;;;;;;;;;;1.20;88.19;96625.66;4994202;28;19954;-74
2023/03/03 00:12:26;;;;;;;;;;;;;;;1.21;88.20;96619.53;4993818;28;20405;-74
2023/03/03 00:14:52;;;;;;;;;;;;;;;1.23;88.36;96623.75;4993827;28;19950;-75
2023/03/03 00:17:26;;;;;;;;;;;;;;;1.23;88.10;96627.13;4994060;28;19940;-75
2023/03/03 00:19:52;;;;;;;;;;;;;;;1.24;88.24;96635.69;4993764;28;19977;-75
2023/03/03 00:22:27;;;;;;;;;;;;;;;1.23;88.31;96631.50;4993821;28;19946;-75
2023/03/03 00:24:53;;;;;;;;;;;;;;;1.23;88.24;96627.13;4994156;28;19957;-75
2023/03/03 00:27:26;;;;;;;;;;;;;;;1.24;88.46;96628.75;4993922;28;19956;-75
2023/03/03 00:29:56;;;;;;;;;;;;;;;1.23;88.62;96624.53;4994963;28;19951;-75
2023/03/03 00:32:26;;;;;;;;;;;;;;;1.24;88.54;96627.94;4997322;28;19951;-75
2023/03/03 00:34:54;;;;;;;;;;;;;;;1.24;88.41;96636.50;4997725;28;19946;-75
2023/03/03 00:37:22;;;;;;;;;;;;;;;1.23;88.49;96632.28;4997169;28;19953;-75
2023/03/03 00:39:48;;;;;;;;;;;;;;;1.24;88.84;96635.69;4997208;28;20439;-74
2023/03/03 00:42:15;;;;;;;;;;;;;;;1.24;88.48;96630.50;4997482;28;19976;-74
2023/03/03 00:44:41;;;;;;;;;;;;;;;1.24;88.31;96630.50;4997241;28;19959;-75
2023/03/03 00:47:28;;;;;;;;;;;;;;;1.23;88.38;96637.47;4997191;28;19954;-75
2023/03/03 00:50:16;;;;;;;;;;;;;;;1.23;88.87;96631.50;4996666;28;20677;-75
2023/03/03 00:52:57;;;;;;;;;;;;;;;1.22;88.41;96622.94;4996999;28;20009;-74
2023/03/03 00:55:24;;;;;;;;;;;;;;;1.24;88.77;96622.75;4996948;28;20317;-76
2023/03/03 00:57:50;;;;;;;;;;;;;;;1.21;88.30;96621.31;4996871;28;19957;-74
2023/03/03 01:00:16;;;;;;;;;;;;;;;1.20;88.16;96617.13;4996927;28;20055;-75
2023/03/03 01:02:45;;;;;;;;;;;;;;;1.19;88.28;96623.22;4996661;28;19956;-75
2023/03/03 01:05:14;;;;;;;;;;;;;;;1.17;88.20;96622.56;4997495;28;20316;-75
2023/03/03 01:07:40;;;;;;;;;;;;;;;1.15;88.08;96629.66;4996924;28;19958;-74
2023/03/03 01:10:06;;;;;;;;;;;;;;;1.13;88.16;96614.31;4996523;28;19951;-75
2023/03/03 01:12:32;;;;;;;;;;;;;;;1.13;87.86;96621.25;4996706;28;20302;-75
2023/03/03 01:14:58;;;;;;;;;;;;;;;1.11;87.77;96616.25;4996715;28;19949;-75
2023/03/03 01:17:24;;;;;;;;;;;;;;;1.08;87.66;96616.56;4996897;28;19980;-75
2023/03/03 01:19:50;;;;;;;;;;;;;;;1.05;87.62;96622.03;4996613;28;19975;-74
2023/03/03 01:22:16;;;;;;;;;;;;;;;1.01;87.55;96618.97;4963308;28;19948;-75
2023/03/03 01:24:42;;;;;;;;;;;;;;;0.95;87.53;96622.16;4996516;28;19955;-75
2023/03/03 01:27:07;;;;;;;;;;;;;;;0.91;87.38;96623.41;4996502;28;20009;-74
2023/03/03 01:29:33;;;;;;;;;;;;;;;0.87;87.45;96624.69;4996548;28;19945;-75
2023/03/03 01:31:59;;;;;;;;;;;;;;;0.84;87.09;96614.66;4996314;28;20071;-74
2023/03/03 01:34:25;;;;;;;;;;;;;;;0.80;87.26;96613.34;4996512;28;20412;-75
2023/03/03 01:36:51;;;;;;;;;;;;;;;0.76;87.27;96614.63;4996261;28;20323;-75
2023/03/03 01:39:17;;;;;;;;;;;;;;;0.71;87.16;96604.72;4996133;28;20333;-74
2023/03/03 01:41:43;;;;;;;;;;;;;;;0.68;87.14;96617.16;4995936;28;19975;-74
2023/03/03 01:44:17;;;;;;;;;;;;;;;0.64;87.25;96616.63;4979126;28;19964;-74
2023/03/03 01:46:47;;;;;;;;;;;;;;;0.62;87.25;96610.00;4996370;28;19948;-74
2023/03/03 01:49:16;;;;;;;;;;;;;;;0.58;87.31;96617.22;4995909;28;19952;-75
2023/03/03 01:51:46;;;;;;;;;;;;;;;0.52;87.34;96608.31;4996008;28;19961;-74
2023/03/03 01:54:15;;;;;;;;;;;;;;;0.47;87.08;96609.75;4996000;28;19945;-75
2023/03/03 01:56:42;;;;;;;;;;;;;;;0.42;87.15;96614.53;4995753;28;19944;-75
2023/03/03 01:59:15;;;;;;;;;;;;;;;0.36;86.93;96618.53;4996147;28;19945;-74
2023/03/03 02:01:41;;;;;;;;;;;;;;;0.31;87.06;96607.84;4996065;28;19945;-75
2023/03/03 02:04:07;;;;;;;;;;;;;;;0.30;87.34;96613.97;4995653;28;19957;-75
2023/03/03 02:06:36;;;;;;;;;;;;;;;0.28;87.82;96613.31;4995739;28;19943;-75
2023/03/03 02:09:11;;;;;;;;;;;;;;;0.25;87.68;96606.66;4995715;28;19948;-74
2023/03/03 02:11:39;;;;;;;;;;;;;;;0.22;87.51;96601.00;4995875;28;19952;-74
2023/03/03 02:14:05;;;;;;;;;;;;;;;0.19;87.60;96596.97;4995704;28;19949;-75
2023/03/03 02:16:31;;;;;;;;;;;;;;;0.15;87.58;96599.03;4995600;28;19995;-75
2023/03/03 02:18:57;;;;;;;;;;;;;;;0.14;87.52;96601.75;4995522;28;19947;-75
2023/03/03 02:21:26;;;;;;;;;;;;;;;0.09;87.59;96597.03;4995117;28;20007;-75
2023/03/03 02:23:58;;;;;;;;;;;;;;;0.06;87.91;96601.66;4995265;28;20419;-75
2023/03/03 02:26:25;;;;;;;;;;;;;;;0.05;87.80;96597.50;4995682;28;19953;-75
2023/03/03 02:28:51;;;;;;;;;;;;;;;0.01;87.78;96594.38;4978040;28;19956;-75
2023/03/03 02:31:19;;;;;;;;;;;;;;;0.00;87.81;96590.19;4995218;28;19950;-75
2023/03/03 02:33:47;;;;;;;;;;;;;;;-0.02;87.92;96589.53;4995193;28;19952;-75
2023/03/03 02:36:18;;;;;;;;;;;;;;;-0.04;87.48;96584.53;4995233;28;19946;-75
2023/03/03 02:39:06;;;;;;;;;;;;;;;-0.06;87.90;96583.06;4995502;28;19947;-75
2023/03/03 02:41:35;;;;;;;;;;;;;;;-0.09;87.75;96578.97;4994757;28;19985;-75
2023/03/03 02:44:01;;;;;;;;;;;;;;;-0.10;87.92;96590.25;4995043;28;19960;-74
2023/03/03 02:46:30;;;;;;;;;;;;;;;-0.13;88.02;96592.31;4994947;28;20374;-74
2023/03/03 02:48:56;;;;;;;;;;;;;;;-0.13;88.10;96595.69;4994877;28;19958;-75
2023/03/03 02:51:22;;;;;;;;;;;;;;;-0.14;88.60;96601.81;4994727;28;20002;-75
2023/03/03 02:53:48;;;;;;;;;;;;;;;-0.16;88.33;96587.47;4994660;28;19948;-75
2023/03/03 02:56:14;;;;;;;;;;;;;;;-0.18;88.57;96602.28;4994903;28;19952;-75
2023/03/03 02:58:40;;;;;;;;;;;;;;;-0.21;88.24;96595.63;4995005;28;19950;-75
2023/03/03 03:01:06;;;;;;;;;;;;;;;-0.24;88.50;96596.72;4994578;28;20017;-74
2023/03/03 03:03:32;;;;;;;;;;;;;;;-0.24;88.44;96604.47;4994521;28;19957;-75
2023/03/03 03:05:58;;;;;;;;;;;;;;;-0.26;88.75;96606.38;4977772;28;19985;-74
2023/03/03 03:08:24;;;;;;;;;;;;;;;-0.26;89.04;96608.94;4994449;28;19945;-75
2023/03/03 03:10:50;;;;;;;;;;;;;;;-0.28;89.44;96612.63;4994773;28;19959;-75
2023/03/03 03:13:16;;;;;;;;;;;;;;;-0.26;89.86;96611.53;4994566;28;19951;-75
2023/03/03 03:15:44;;;;;;;;;;;;;;;-0.25;89.82;96609.78;4977145;28;20425;-75
2023/03/03 03:18:10;;;;;;;;;;;;;;;-0.24;91.21;96612.19;4994128;28;19950;-75
2023/03/03 03:20:36;;;;;;;;;;;;;;;-0.21;90.96;96613.66;4994376;28;20014;-75
2023/03/03 03:23:02;;;;;;;;;;;;;;;-0.20;91.58;96615.28;4994601;28;19963;-75
2023/03/03 03:25:28;;;;;;;;;;;;;;;-0.16;91.44;96605.50;4994167;28;19948;-74
2023/03/03 03:27:54;;;;;;;;;;;;;;;-0.13;91.49;96610.34;4994253;28;20009;-75
2023/03/03 03:30:21;;;;;;;;;;;;;;;-0.10;91.73;96615.25;4977218;28;20376;-75
2023/03/03 03:32:47;;;;;;;;;;;;;;;-0.10;92.00;96610.09;4993979;28;20415;-75
2023/03/03 03:35:13;;;;;;;;;;;;;;;-0.08;92.40;96613.31;4976909;28;19948;-75
2023/03/03 03:37:39;;;;;;;;;;;;;;;-0.07;92.75;96614.94;4993955;28;19943;-76
2023/03/03 03:40:05;;;;;;;;;;;;;;;-0.04;92.91;96612.06;4994279;28;19977;-75
2023/03/03 03:42:31;;;;;;;;;;;;;;;-0.01;92.86;96607.41;4976278;28;19972;-75
2023/03/03 03:44:57;;;;;;;;;;;;;;;0.02;94.14;96615.81;4993954;28;19951;-76
2023/03/03 03:47:23;;;;;;;;;;;;;;;0.05;93.78;96607.81;4994046;28;19949;-76
2023/03/03 03:49:48;;;;;;;;;;;;;;;0.07;93.43;96611.84;4976584;28;19951;-75
2023/03/03 03:52:14;;;;;;;;;;;;;;;0.11;93.87;96607.22;4993946;28;19949;-75
2023/03/03 03:54:40;;;;;;;;;;;;;;;0.16;94.01;96613.53;4994111;28;20032;-75
2023/03/03 03:57:07;;;;;;;;;;;;;;;0.18;94.53;96613.38;4994184;28;19955;-75
2023/03/03 03:59:33;;;;;;;;;;;;;;;0.23;94.26;96615.50;4993874;28;20382;-74
2023/03/03 04:01:58;;;;;;;;;;;;;;;0.25;94.19;96614.41;4994082;28;19954;-75
2023/03/03 04:04:24;;;;;;;;;;;;;;;0.28;93.88;96616.69;4994046;28;19945;-74
2023/03/03 04:06:50;;;;;;;;;;;;;;;0.31;93.97;96611.22;4997335;28;19987;-74
2023/03/03 04:09:16;;;;;;;;;;;;;;;0.32;93.78;96615.44;4998091;28;20413;-75
2023/03/03 04:11:42;;;;;;;;;;;;;;;0.35;93.83;96616.91;4997668;28;20421;-75
2023/03/03 04:14:08;;;;;;;;;;;;;;;0.36;93.91;96616.75;4997687;28;19950;-75
2023/03/03 04:16:34;;;;;;;;;;;;;;;0.38;93.83;96611.47;4980312;28;20014;-74
2023/03/03 04:18:59;;;;;;;;;;;;;;;0.39;93.73;96608.72;4997585;28;19976;-75
2023/03/03 04:21:26;;;;;;;;;;;;;;;0.42;93.83;96614.53;4997347;28;19963;-75
2023/03/03 04:23:52;;;;;;;;;;;;;;;0.42;93.86;96607.63;4998042;28;20436;-74
2023/03/03 04:26:18;;;;;;;;;;;;;;;0.44;94.00;96604.88;4997553;28;19945;-75
2023/03/03 04:28:44;;;;;;;;;;;;;;;0.46;93.86;96611.50;4997781;28;19958;-76
2023/03/03 04:31:10;;;;;;;;;;;;;;;0.46;93.94;96611.50;4980281;28;19956;-76
2023/03/03 04:33:36;;;;;;;;;;;;;;;0.48;94.02;96617.31;4997294;28;19955;-74
2023/03/03 04:36:02;;;;;;;;;;;;;;;0.48;94.07;96614.72;4997430;28;20012;-75
2023/03/03 04:38:28;;;;;;;;;;;;;;;0.50;94.12;96622.34;4997403;28;19952;-74
2023/03/03 04:40:55;;;;;;;;;;;;;;;0.52;94.27;96617.84;4997773;28;19965;-75
2023/03/03 04:43:20;;;;;;;;;;;;;;;0.55;94.15;96614.97;4997126;28;20375;-75
2023/03/03 04:45:46;;;;;;;;;;;;;;;0.57;93.66;96616.44;4996069;28;19960;-75
2023/03/03 04:48:12;;;;;;;;;;;;;;;0.58;94.11;96620.63;4997268;28;19958;-75
2023/03/03 04:50:38;;;;;;;;;;;;;;;0.60;93.82;96617.88;4997229;28;20315;-75
2023/03/03 04:53:04;;;;;;;;;;;;;;;0.62;93.83;96620.34;4979982;28;19962;-75
2023/03/03 04:55:30;;;;;;;;;;;;;;;0.63;93.57;96621.94;4996921;28;19986;-75
2023/03/03 04:57:56;;;;;;;;;;;;;;;0.67;93.91;96631.00;4996834;28;20420;-75
2023/03/03 05:00:22;;;;;;;;;;;;;;;0.67;94.13;96621.47;4996692;28;20036;-75
2023/03/03 05:02:47;;;;;;;;;;;;;;;0.69;93.90;96621.34;4997148;28;20008;-75
2023/03/03 05:05:13;;;;;;;;;;;;;;;0.69;93.85;96627.28;4996776;28;19971;-75
2023/03/03 05:07:39;;;;;;;;;;;;;;;0.70;93.61;96623.78;4997068;28;19995;-75
2023/03/03 05:10:06;;;;;;;;;;;;;;;0.72;93.56;96631.38;4996905;28;19960;-75
2023/03/03 05:12:32;;;;;;;;;;;;;;;0.73;93.59;96614.91;4996663;28;19970;-74
2023/03/03 05:14:58;;;;;;;;;;;;;;;0.74;93.51;96622.50;4996693;28;20392;-74
2023/03/03 05:17:24;;;;;;;;;;;;;;;0.75;93.40;96631.06;4996073;28;19986;-74
2023/03/03 05:19:50;;;;;;;;;;;;;;;0.74;93.36;96632.84;4996820;28;20318;-75
2023/03/03 05:22:16;;;;;;;;;;;;;;;0.75;93.76;96641.38;4996673;28;19956;-74
2023/03/03 05:24:42;;;;;;;;;;;;;;;0.74;93.75;96638.00;4996497;28;19952;-75
2023/03/03 05:27:08;;;;;;;;;;;;;;;0.75;93.80;96636.22;4984132;28;19957;-75
2023/03/03 05:29:34;;;;;;;;;;;;;;;0.76;94.00;96640.44;4996220;28;20037;-75
2023/03/03 05:32:00;;;;;;;;;;;;;;;0.76;94.01;96646.41;4996394;28;20000;-74
2023/03/03 05:34:26;;;;;;;;;;;;;;;0.78;94.12;96643.66;4996095;28;19992;-75
2023/03/03 05:36:52;;;;;;;;;;;;;;;0.77;93.90;96637.69;4996339;28;20047;-74
2023/03/03 05:39:17;;;;;;;;;;;;;;;0.79;93.75;96643.50;4996000;28;20003;-74
2023/03/03 05:41:43;;;;;;;;;;;;;;;0.79;94.33;96640.91;4996174;28;20099;-74
2023/03/03 05:44:09;;;;;;;;;;;;;;;0.80;93.99;96644.34;4996075;28;20050;-75
2023/03/03 05:46:35;;;;;;;;;;;;;;;0.80;94.47;96647.72;4995555;28;20013;-74
2023/03/03 05:49:01;;;;;;;;;;;;;;;0.81;94.53;96656.25;4978267;28;19977;-75
2023/03/03 05:51:27;;;;;;;;;;;;;;;0.82;94.44;96652.75;4995280;28;19954;-76
2023/03/03 05:53:53;;;;;;;;;;;;;;;0.82;94.09;96650.16;4995286;28;20039;-75
2023/03/03 05:56:19;;;;;;;;;;;;;;;0.83;93.92;96659.50;4995291;28;20038;-75
2023/03/03 05:58:45;;;;;;;;;;;;;;;0.85;93.63;96654.19;4994999;28;19952;-75
2023/03/03 06:01:11;;;;;;;;;;;;;;;0.85;93.70;96660.16;4995560;28;19975;-75
2023/03/03 06:03:37;;;;;;;;;;;;;;;0.85;93.84;96661.94;4995778;28;19944;-75
2023/03/03 06:06:03;;;;;;;;;;;;;;;0.79;93.19;96664.16;4995625;28;20454;-76
2023/03/03 06:08:31;;;;;;;;;;;;;;;0.73;93.73;96674.28;4995747;28;20068;-75
2023/03/03 06:10:57;;;;;;;;;;;;;;;0.68;93.20;96668.75;4995314;28;19959;-75
2023/03/03 06:13:23;;;;;;;;;;;;;;;0.68;93.44;96667.00;4995473;28;20402;-75
2023/03/03 06:15:48;;;;;;;;;;;;;;;0.71;93.57;96671.03;4994734;28;19956;-74
2023/03/03 06:18:15;;;;;;;;;;;;;;;0.73;93.29;96671.69;4995533;28;19953;-74
2023/03/03 06:20:40;;;;;;;;;;;;;;;0.75;93.17;96675.75;4995762;28;19964;-75
2023/03/03 06:23:06;;;;;;;;;;;;;;;0.76;92.78;96674.78;4995342;28;20098;-75
2023/03/03 06:25:34;;;;;;;;;;;;;;;0.80;92.77;96680.47;4995157;28;20050;-74
2023/03/03 06:28:00;;;;;;;;;;;;;;;0.80;92.50;96677.91;4994700;28;19951;-75
2023/03/03 06:30:27;;;;;;;;;;;;;;;0.81;92.61;96682.88;4994325;28;19951;-75
2023/03/03 06:32:53;;;;;;;;;;;;;;;0.84;93.06;96688.72;4995296;28;19964;-74
2023/03/03 06:35:19;;;;;;;;;;;;;;;0.84;92.86;96686.97;4995003;28;19945;-75
2023/03/03 06:37:45;;;;;;;;;;;;;;;0.86;92.98;96692.78;4995164;28;19953;-75
2023/03/03 06:40:11;;;;;;;;;;;;;;;0.87;92.90;96694.38;4994931;28;19995;-75
2023/03/03 06:42:37;;;;;;;;;;;;;;;0.90;92.87;96688.09;4995282;28;19974;-75
2023/03/03 06:45:03;;;;;;;;;;;;;;;0.92;92.89;96694.72;4995131;28;20488;-74
2023/03/03 06:47:30;;;;;;;;;;;;;;;0.95;93.20;96702.19;4994981;28;19967;-74
2023/03/03 06:49:56;;;;;;;;;;;;;;;0.98;93.23;96703.66;4994847;28;19969;-75
2023/03/03 06:52:23;;;;;;;;;;;;;;;1.01;92.87;96713.69;4994971;28;20364;-75
2023/03/03 06:54:50;;;;;;;;;;;;;;;1.04;92.91;96704.84;4994749;28;19945;-75
2023/03/03 06:57:22;;;;;;;;;;;;;;;1.07;92.71;96707.94;4994704;28;19954;-74
2023/03/03 06:59:50;;;;;;;;;;;;;;;1.11;92.88;96711.81;4994879;28;19952;-75
2023/03/03 07:02:16;;;;;;;;;;;;;;;1.13;92.31;96712.47;4994761;28;19963;-75
2023/03/03 07:04:44;;;;;;;;;;;;;;;1.17;92.20;96712.97;4994592;28;19972;-75
2023/03/03 07:07:14;;;;;;;;;;;;;;;1.20;92.32;96716.06;4994833;28;19947;-74
2023/03/03 07:09:40;;;;;;;;;;;;;;;1.24;92.24;96723.50;4994362;28;19947;-74
2023/03/03 07:12:10;;;;;;;;;;;;;;;1.27;92.57;96716.28;4994491;28;20340;-74
2023/03/03 07:14:40;;;;;;;;;;;;;;;1.27;92.23;96721.44;4994808;28;19949;-74
2023/03/03 07:17:12;;;;;;;;;;;;;;;1.24;92.56;96724.34;4994587;28;20314;-74
2023/03/03 07:19:39;;;;;;;;;;;;;;;1.24;92.45;96731.25;4994613;28;19952;-75
2023/03/03 07:22:16;;;;;;;;;;;;;;;1.26;92.97;96737.91;4994205;28;19972;-74
2023/03/03 07:24:43;;;;;;;;;;;;;;;1.28;93.05;96736.00;4994471;28;20396;-74
2023/03/03 07:27:18;;;;;;;;;;;;;;;1.31;92.09;96734.88;4994914;28;19957;-75
2023/03/03 07:29:47;;;;;;;;;;;;;;;1.31;91.98;96738.25;4980773;28;20324;-75
2023/03/03 07:32:32;;;;;;;;;;;;;;;1.29;92.01;96736.78;4994116;28;20396;-76
2023/03/03 07:34:58;;;;;;;;;;;;;;;1.28;92.21;96732.56;4994203;28;19949;-75
2023/03/03 07:37:34;;;;;;;;;;;;;;;1.30;92.38;96748.75;4993793;28;20004;-75
2023/03/03 07:40:05;;;;;;;;;;;;;;;1.34;92.25;96734.56;4994209;28;19953;-76
2023/03/03 07:42:41;;;;;;;;;;;;;;;1.39;92.65;96742.69;4979124;28;19970;-76
2023/03/03 07:45:23;;;;;;;;;;;;;;;1.54;100.00;96750.66;4994125;28;19976;-76
2023/03/03 07:47:49;;;;;;;;;;;;;;;1.64;93.15;96725.53;4994303;28;19961;-75
2023/03/03 07:50:19;;;;;;;;;;;;;;;1.64;92.24;96722.94;4994487;28;20415;-75
2023/03/03 07:52:55;;;;;;;;;;;;;;;1.61;91.48;96726.63;4994165;28;19947;-76
2023/03/03 07:55:35;;;;;;;;;;;;;;;1.57;91.89;96727.88;4994179;28;20405;-75
2023/03/03 07:58:16;;;;;;;;;;;;;;;1.60;91.54;96730.19;4994011;28;19956;-75
2023/03/03 08:00:42;;;;;;;;;;;;;;;1.63;91.91;96745.38;4980134;28;19963;-75
2023/03/03 08:03:11;;;;;;;;;;;;;;;1.67;91.68;96743.28;4994078;28;20007;-75
2023/03/03 08:05:40;;;;;;;;;;;;;;;1.72;91.76;96735.91;4993801;28;19960;-75
2023/03/03 08:08:08;;;;;;;;;;;;;;;1.79;92.10;96733.50;4993854;28;19940;-75
2023/03/03 08:10:47;;;;;;;;;;;;;;;1.89;91.58;96729.03;4976962;28;20428;-75
2023/03/03 08:13:22;;;;;;;;;;;;;;;1.92;91.52;96731.28;4993989;28;20125;-75
2023/03/03 08:15:49;;;;;;;;;;;;;;;1.89;91.93;96731.59;4994025;28;19945;-75
2023/03/03 08:18:22;;;;;;;;;;;;;;;1.94;92.46;96737.09;4994043;28;19953;-76
2023/03/03 08:20:58;;;;;;;;;;;;;;;2.00;91.98;96733.91;4993634;28;19957;-75
2023/03/03 08:23:24;;;;;;;;;;;;;;;2.08;91.93;96734.88;4994052;28;19944;-76
2023/03/03 08:25:51;;;;;;;;;;;;;;;2.15;91.22;96733.31;4982414;28;19951;-74
2023/03/03 08:28:17;;;;;;;;;;;;;;;2.19;90.00;96724.25;4993783;28;19944;-75
2023/03/03 08:30:43;;;;;;;;;;;;;;;2.27;90.07;96733.78;4993815;28;19949;-75
2023/03/03 08:33:09;;;;;;;;;;;;;;;2.33;89.31;96718.47;4993792;28;19960;-75
2023/03/03 08:35:36;;;;;;;;;;;;;;;2.42;89.01;96724.47;4993062;28;19948;-75
2023/03/03 08:38:02;;;;;;;;;;;;;;;2.52;89.35;96722.53;4993888;28;20375;-75
2023/03/03 08:40:28;;;;;;;;;;;;;;;2.62;89.16;96719.78;4993808;28;20308;-75
2023/03/03 08:42:54;;;;;;;;;;;;;;;2.74;88.96;96735.81;4993513;28;19982;-75
2023/03/03 08:45:20;;;;;;;;;;;;;;;2.83;87.74;96714.13;4993660;28;19964;-75
2023/03/03 08:47:45;;;;;;;;;;;;;;;2.93;86.29;96706.19;4992686;28;20013;-75
2023/03/03 08:50:12;;;;;;;;;;;;;;;3.00;85.94;96707.97;4992795;28;20007;-75
2023/03/03 08:52:38;;;;;;;;;;;;;;;3.09;85.68;96708.78;4997208;28;20395;-75
2023/03/03 08:55:04;;;;;;;;;;;;;;;3.19;85.14;96704.22;4997107;28;19944;-75
2023/03/03 08:57:30;;;;;;;;;;;;;;;3.25;84.51;96698.38;4997031;28;19946;-76
2023/03/03 08:59:56;;;;;;;;;;;;;;;3.39;84.40;96703.84;4996863;28;19953;-74
2023/03/03 09:02:22;;;;;;;;;;;;;;;3.51;83.24;96689.56;4996624;28;19968;-75
2023/03/03 09:04:48;;;;;;;;;;;;;;;3.63;82.65;96690.81;4997010;28;20347;-74
2023/03/03 09:07:14;;;;;;;;;;;;;;;3.83;82.40;96687.81;4979384;28;20006;-75
2023/03/03 09:09:39;;;;;;;;;;;;;;;3.97;82.29;96692.28;4996342;28;19947;-75
2023/03/03 09:12:13;;;;;;;;;;;;;;;4.12;81.52;96681.19;4996585;28;20005;-75
2023/03/03 09:14:39;;;;;;;;;;;;;;;4.27;82.12;96689.84;4997063;28;19943;-75
2023/03/03 09:17:18;;;;;;;;;;;;;;;4.49;80.67;96675.25;4996781;28;19948;-75
2023/03/03 09:19:44;;;;;;;;;;;;;;;4.70;79.98;96668.59;4979521;28;19952;-75
2023/03/03 09:22:20;;;;;;;;;;;;;;;4.75;79.16;96667.09;4996634;28;19967;-75
2023/03/03 09:24:47;;;;;;;;;;;;;;;4.78;79.71;96676.31;4996415;28;19971;-75
2023/03/03 09:27:34;;;;;;;;;;;;;;;4.82;77.65;96668.00;4996292;28;20298;-75
2023/03/03 09:30:23;;;;;;;;;;;;;;;4.82;79.18;96675.78;4996395;28;19957;-75
2023/03/03 09:32:49;;;;;;;;;;;;;;;4.83;79.32;96687.00;4977313;28;19946;-75
2023/03/03 09:35:36;;;;;;;;;;;;;;;4.84;79.21;96683.41;4963927;28;20392;-75
2023/03/03 09:38:15;;;;;;;;;;;;;;;4.86;78.65;96678.84;4979830;28;19946;-75
2023/03/03 09:41:00;;;;;;;;;;;;;;;4.93;78.78;96677.16;4979491;28;19952;-74
2023/03/03 09:43:42;;;;;;;;;;;;;;;5.04;79.13;96683.72;4981597;28;19944;-74
2023/03/03 09:46:17;;;;;;;;;;;;;;;5.13;77.18;96661.88;4996748;28;19950;-74
2023/03/03 09:48:58;;;;;;;;;;;;;;;5.18;78.21;96672.53;4978705;28;19950;-74
2023/03/03 09:51:46;;;;;;;;;;;;;;;5.33;77.54;96666.53;4978776;28;19945;-74
2023/03/03 09:54:31;;;;;;;;;;;;;;;5.40;78.21;96680.47;4995878;28;19941;-74
2023/03/03 09:57:26;;;;;;;;;;;;;;;5.43;77.50;96674.88;4996307;28;19946;-74
2023/03/03 10:00:00;;;;;;;;;;;;;;;5.52;76.83;96660.00;4969679;28;19953;-75
2023/03/03 10:02:38;;;;;;;;;;;;;;;5.54;75.81;96643.22;4995546;28;19970;-75
2023/03/03 10:05:14;;;;;;;;;;;;;;;5.56;76.27;96656.84;4996363;28;19947;-74
2023/03/03 10:07:40;;;;;;;;;;;;;;;5.57;76.70;96661.06;4995582;28;19942;-73
2023/03/03 10:10:18;;;;;;;;;;;;;;;5.64;75.99;96651.53;4978382;28;19955;-74
2023/03/03 10:12:56;;;;;;;;;;;;;;;5.77;75.87;96660.50;4995702;28;19965;-74
2023/03/03 10:15:40;;;;;;;;;;;;;;;5.90;74.04;96642.47;4995376;28;20327;-74
2023/03/03 10:18:25;;;;;;;;;;;;;;;6.13;74.01;96634.50;4995508;28;19947;-74
2023/03/03 10:21:03;;;;;;;;;;;;;;;6.19;72.60;96627.75;4978071;28;20408;-74
2023/03/03 10:23:51;;;;;;;;;;;;;;;6.25;73.50;96630.41;4995298;28;19958;-74
2023/03/03 10:26:29;;;;;;;;;;;;;;;6.44;73.81;96639.41;4995555;28;20414;-75
2023/03/03 10:28:57;;;;;;;;;;;;;;;6.73;72.84;96635.03;4995076;28;19945;-74
2023/03/03 10:31:26;;;;;;;;;;;;;;;6.93;73.50;96645.63;4995153;28;19954;-74
2023/03/03 10:34:01;;;;;;;;;;;;;;;6.89;69.93;96616.53;4994948;28;19943;-74
2023/03/03 10:36:56;;;;;;;;;;;;;;;6.90;69.42;96615.50;4995462;28;19944;-74
2023/03/03 10:39:25;;;;;;;;;;;;;;;6.88;70.87;96622.72;4977815;28;19939;-76
2023/03/03 10:42:09;;;;;;;;;;;;;;;6.94;74.01;96649.84;4994783;28;20043;-74
2023/03/03 10:44:38;;;;;;;;;;;;;;;6.96;71.42;96624.38;4985234;28;19944;-74
2023/03/03 10:47:43;;;;;;;;;;;;;;;6.97;71.94;96652.09;4994948;28;19945;-75
2023/03/03 10:50:17;;;;;;;;;;;;;;;7.02;66.88;96594.94;4926514;29;19949;-75
2023/03/03 10:53:02;;;;;;;;;;;;;;;7.10;68.36;96613.06;4924639;29;19950;-74
2023/03/03 10:55:45;;;;;;;;;;;;;;;7.19;65.84;96589.44;4968968;28;19948;-74
2023/03/03 10:58:20;;;;;;;;;;;;;;;7.21;65.79;96590.84;4981787;28;19947;-74
2023/03/03 11:01:06;;;;;;;;;;;;;;;7.23;67.44;96596.66;4994578;28;19945;-74
2023/03/03 11:03:32;;;;;;;;;;;;;;;7.27;66.77;96584.84;4994780;28;20395;-74
2023/03/03 11:06:17;;;;;;;;;;;;;;;7.30;65.45;96584.44;4977444;28;20011;-74
2023/03/03 11:08:48;;;;;;;;;;;;;;;7.39;68.93;96610.38;4994654;28;19946;-74
2023/03/03 11:11:33;;;;;;;;;;;;;;;7.45;67.43;96596.56;4995018;28;19958;-74
2023/03/03 11:14:12;;;;;;;;;;;;;;;7.51;66.49;96591.38;4994130;28;20487;-76
2023/03/03 11:16:38;;;;;;;;;;;;;;;7.53;66.82;96593.78;4994558;28;19950;-75
2023/03/03 11:19:06;;;;;;;;;;;;;;;7.58;66.76;96601.84;4994637;28;19954;-75
2023/03/03 11:21:38;;;;;;;;;;;;;;;7.68;64.86;96580.59;4994269;28;20293;-75
2023/03/03 11:24:04;;;;;;;;;;;;;;;7.93;65.61;96580.88;4993532;28;19948;-75
2023/03/03 11:26:39;;;;;;;;;;;;;;;8.09;65.18;96571.88;4994356;28;20302;-75
2023/03/03 11:29:17;;;;;;;;;;;;;;;8.22;64.80;96565.84;4994173;28;19949;-75
2023/03/03 11:31:47;;;;;;;;;;;;;;;8.28;64.42;96552.00;4977537;28;19948;-76
2023/03/03 11:34:19;;;;;;;;;;;;;;;8.45;62.03;96540.16;4995019;28;20415;-76
2023/03/03 11:36:49;;;;;;;;;;;;;;;8.62;66.48;96582.38;4994143;28;20309;-75
2023/03/03 11:39:27;;;;;;;;;;;;;;;8.73;62.30;96528.66;4977117;28;19945;-75
2023/03/03 11:41:57;;;;;;;;;;;;;;;8.82;59.37;96505.72;4994166;28;19975;-76
2023/03/03 11:44:27;;;;;;;;;;;;;;;8.90;59.73;96515.94;4994242;28;19962;-75
2023/03/03 11:47:08;;;;;;;;;;;;;;;8.84;59.46;96528.06;4994097;28;20381;-75
2023/03/03 11:49:53;;;;;;;;;;;;;;;8.83;59.72;96521.19;4994368;28;19953;-75
2023/03/03 11:52:31;;;;;;;;;;;;;;;8.87;61.26;96538.09;4994133;28;19942;-76
2023/03/03 11:55:09;;;;;;;;;;;;;;;8.94;60.46;96528.44;4994153;28;19943;-76
2023/03/03 11:57:39;;;;;;;;;;;;;;;8.87;61.78;96556.41;4986136;28;19947;-75
2023/03/03 12:00:23;;;;;;;;;;;;;;;8.77;59.06;96529.06;4994183;28;19961;-76
2023/03/03 12:02:50;;;;;;;;;;;;;;;8.71;59.15;96533.28;4993415;28;19963;-75
2023/03/03 12:05:38;;;;;;;;;;;;;;;8.68;59.17;96531.88;4994032;28;19945;-75
2023/03/03 12:08:15;;;;;;;;;;;;;;;8.62;59.25;96532.69;4993526;28;19941;-75
2023/03/03 12:11:07;;;;;;;;;;;;;;;8.59;60.84;96555.81;4993959;28;20402;-75
2023/03/03 12:13:46;;;;;;;;;;;;;;;8.56;60.08;96554.41;4992998;28;19971;-75
2023/03/03 12:16:33;;;;;;;;;;;;;;;8.57;60.45;96548.19;4982650;28;19973;-75
2023/03/03 12:19:19;;;;;;;;;;;;;;;8.57;63.02;96570.91;4980125;28;19948;-76
2023/03/03 12:22:08;;;;;;;;;;;;;;;8.60;62.40;96555.63;4992786;28;19962;-75
2023/03/03 12:24:41;;;;;;;;;;;;;;;8.67;59.00;96532.09;4993281;28;19947;-75
2023/03/03 12:27:16;;;;;;;;;;;;;;;8.79;59.29;96545.34;4996781;28;19969;-75
2023/03/03 12:29:49;;;;;;;;;;;;;;;8.87;59.41;96551.16;4997521;28;19941;-75
2023/03/03 12:32:24;;;;;;;;;;;;;;;8.89;60.64;96561.44;4997672;28;20319;-75
2023/03/03 12:34:56;;;;;;;;;;;;;;;8.99;59.02;96555.75;4999028;28;19946;-75
2023/03/03 12:37:30;;;;;;;;;;;;;;;9.16;60.90;96567.41;4998198;28;20415;-75
2023/03/03 12:39:56;;;;;;;;;;;;;;;9.20;57.05;96546.84;4997512;28;19978;-75
2023/03/03 12:42:37;;;;;;;;;;;;;;;9.26;56.87;96552.09;4997368;28;19968;-75
2023/03/03 12:45:11;;;;;;;;;;;;;;;9.44;56.15;96542.75;4997816;28;19956;-75
2023/03/03 12:47:39;;;;;;;;;;;;;;;9.52;55.04;96542.50;4997509;28;20311;-76
2023/03/03 12:50:04;;;;;;;;;;;;;;;9.52;55.61;96545.13;4997505;28;19956;-75
2023/03/03 12:52:49;;;;;;;;;;;;;;;9.61;60.36;96583.16;4996180;28;19947;-75
2023/03/03 12:55:15;;;;;;;;;;;;;;;9.72;55.54;96548.47;4997257;28;19955;-75
2023/03/03 12:57:46;;;;;;;;;;;;;;;9.80;55.90;96538.75;4997054;28;19950;-75
2023/03/03 13:00:25;;;;;;;;;;;;;;;9.83;55.34;96554.06;4997726;28;19945;-75
2023/03/03 13:02:57;;;;;;;;;;;;;;;9.87;55.11;96565.69;4988298;28;19969;-75
2023/03/03 13:05:35;;;;;;;;;;;;;;;9.87;55.86;96560.44;4996432;28;19940;-75
2023/03/03 13:08:07;;;;;;;;;;;;;;;9.82;56.90;96568.16;4997060;28;19952;-75
2023/03/03 13:10:42;;;;;;;;;;;;;;;9.75;56.52;96563.75;4996831;28;19947;-75